Time;durP1;ratioP1;P1;durP2;ratioP2;P2;SDS_P1;SDS_P2;PMS_P1;PMS_P2;Temp;Humidity;BMP_temperature;BMP_pressure;BME280_temperature;BME280_humidity;BME280_pressure;Samples;Min_cycle;Max_cycle;Signal;HPM_P1;HPM_P2
2023/03/01 00:00:46;;;;;;;10.70;9.57;;;;;;;;;;4939370;28;20201;-78
2023/03/01 00:03:13;;;;;;;10.55;9.50;;;;;;;;;;4949244;28;20485;-77
2023/03/01 00:05:45;;;;;;;17.10;10.57;;;;;;;;;;4959663;28;20231;-78
2023/03/01 00:08:11;;;;;;;11.10;9.60;;;;;;;;;;4962619;28;20768;-77
2023/03/01 00:10:37;;;;;;;16.10;10.30;;;;;;;;;;4942592;28;20554;-79
2023/03/01 00:13:05;;;;;;;11.13;10.03;;;;;;;;;;4970383;28;20967;-78
2023/03/01 00:15:31;;;;;;;10.55;9.52;;;;;;;;;;4965408;28;20468;-77
2023/03/01 00:17:57;;;;;;;10.93;9.77;;;;;;;;;;4960112;28;20798;-77
2023/03/01 00:20:26;;;;;;;10.60;9.60;;;;;;;;;;4961086;28;20685;-77
2023/03/01 00:22:52;;;;;;;10.18;9.18;;;;;;;;;;4968465;28;20446;-78
2023/03/01 00:25:18;;;;;;;11.60;9.10;;;;;;;;;;4960199;28;20205;-77
2023/03/01 00:27:44;;;;;;;8.30;7.50;;;;;;;;;;4967072;28;20524;-78
2023/03/01 00:30:10;;;;;;;10.47;9.47;;;;;;;;;;4946231;28;20456;-77
2023/03/01 00:32:36;;;;;;;11.15;9.40;;;;;;;;;;4965577;28;20465;-76
2023/03/01 00:35:02;;;;;;;10.47;8.40;;;;;;;;;;4944340;28;20687;-76
2023/03/01 00:37:28;;;;;;;10.07;9.00;;;;;;;;;;4974509;28;21034;-78
2023/03/01 00:39:54;;;;;;;14.25;9.68;;;;;;;;;;4959579;28;20456;-76
2023/03/01 00:42:21;;;;;;;9.90;8.90;;;;;;;;;;4968558;28;20266;-76
2023/03/01 00:44:47;;;;;;;10.27;8.43;;;;;;;;;;4953290;28;21296;-78
2023/03/01 00:47:14;;;;;;;16.47;9.37;;;;;;;;;;4958466;28;20193;-77
2023/03/01 00:49:40;;;;;;;12.95;9.88;;;;;;;;;;4961959;28;20452;-77
2023/03/01 00:52:06;;;;;;;8.82;8.20;;;;;;;;;;4959525;28;20185;-76
2023/03/01 00:54:32;;;;;;;10.98;9.82;;;;;;;;;;4954923;28;20301;-77
2023/03/01 00:57:02;;;;;;;9.73;8.77;;;;;;;;;;4966445;28;21331;-76
2023/03/01 00:59:28;;;;;;;15.50;10.00;;;;;;;;;;4937070;28;20452;-75
2023/03/01 01:01:54;;;;;;;19.50;9.97;;;;;;;;;;4969422;28;20423;-77
2023/03/01 01:04:20;;;;;;;13.43;10.45;;;;;;;;;;4961999;28;20465;-76
2023/03/01 01:06:46;;;;;;;11.63;9.65;;;;;;;;;;4957424;28;20213;-75
2023/03/01 01:09:16;;;;;;;12.38;9.80;;;;;;;;;;4966344;28;21034;-76
2023/03/01 01:11:43;;;;;;;13.85;10.60;;;;;;;;;;4974046;28;20180;-77
2023/03/01 01:14:09;;;;;;;14.70;11.60;;;;;;;;;;4968256;28;20186;-77
2023/03/01 01:16:35;;;;;;;13.57;10.02;;;;;;;;;;4975611;28;20951;-77
2023/03/01 01:19:01;;;;;;;12.40;10.27;;;;;;;;;;4945878;28;20190;-77
2023/03/01 01:21:27;;;;;;;10.98;9.70;;;;;;;;;;4973048;28;20429;-77
2023/03/01 01:23:54;;;;;;;12.10;10.80;;;;;;;;;;4960441;28;20182;-77
2023/03/01 01:26:22;;;;;;;11.07;9.90;;;;;;;;;;4955706;28;20174;-78
2023/03/01 01:28:48;;;;;;;9.35;7.93;;;;;;;;;;4952471;28;20601;-77
2023/03/01 01:31:14;;;;;;;10.48;9.00;;;;;;;;;;4968730;28;20279;-77
2023/03/01 01:33:40;;;;;;;14.13;11.20;;;;;;;;;;4971911;28;20184;-76
2023/03/01 01:36:07;;;;;;;11.30;10.10;;;;;;;;;;4953970;28;20703;-76
2023/03/01 01:38:33;;;;;;;9.07;8.17;;;;;;;;;;4952408;28;20511;-76
2023/03/01 01:40:59;;;;;;;11.90;10.67;;;;;;;;;;4966150;28;20461;-76
2023/03/01 01:43:36;;;;;;;14.10;11.15;;;;;;;;;;4963202;28;20457;-76
2023/03/01 01:46:07;;;;;;;11.87;10.47;;;;;;;;;;4964342;28;20453;-77
2023/03/01 01:48:54;;;;;;;10.75;9.23;;;;;;;;;;4969970;28;20438;-77
2023/03/01 01:51:22;;;;;;;13.48;10.57;;;;;;;;;;4962071;28;20193;-76
2023/03/01 01:53:51;;;;;;;11.23;9.80;;;;;;;;;;4939111;28;20252;-76
2023/03/01 01:56:17;;;;;;;14.75;11.80;;;;;;;;;;4966351;28;20473;-77
2023/03/01 01:58:47;;;;;;;13.07;10.23;;;;;;;;;;4969496;28;20185;-76
2023/03/01 02:01:13;;;;;;;12.10;10.80;;;;;;;;;;4961123;28;20514;-77
2023/03/01 02:03:41;;;;;;;12.63;10.80;;;;;;;;;;4953519;28;20472;-77
2023/03/01 02:06:10;;;;;;;14.20;11.18;;;;;;;;;;4967216;28;20552;-76
2023/03/01 02:08:38;;;;;;;13.27;11.43;;;;;;;;;;4962807;28;20696;-76
2023/03/01 02:11:04;;;;;;;11.50;9.65;;;;;;;;;;4964732;28;20513;-77
2023/03/01 02:13:31;;;;;;;11.35;9.52;;;;;;;;;;4958642;28;20581;-76
2023/03/01 02:15:57;;;;;;;18.98;10.38;;;;;;;;;;4959872;28;20210;-76
2023/03/01 02:18:24;;;;;;;13.05;11.63;;;;;;;;;;4966256;28;20691;-76
2023/03/01 02:20:50;;;;;;;11.70;10.60;;;;;;;;;;4960213;28;20193;-77
2023/03/01 02:23:16;;;;;;;13.10;10.77;;;;;;;;;;4945741;28;20220;-77
2023/03/01 02:25:48;;;;;;;13.20;10.27;;;;;;;;;;4960115;28;20544;-77
2023/03/01 02:28:17;;;;;;;9.67;8.87;;;;;;;;;;4969908;28;20712;-76
2023/03/01 02:33:33;;;;;;;13.55;11.02;;;;;;;;;;4966037;28;20528;-76
2023/03/01 02:36:01;;;;;;;18.38;12.10;;;;;;;;;;4956846;28;20220;-76
2023/03/01 02:38:27;;;;;;;11.60;9.30;;;;;;;;;;4969503;28;20208;-76
2023/03/01 02:40:54;;;;;;;14.38;10.15;;;;;;;;;;4958846;28;20460;-77
2023/03/01 02:43:23;;;;;;;14.02;10.82;;;;;;;;;;4961197;28;20650;-76
2023/03/01 02:45:50;;;;;;;13.10;11.10;;;;;;;;;;4964277;28;20193;-76
2023/03/01 02:48:16;;;;;;;10.30;9.35;;;;;;;;;;4963011;28;20183;-76
2023/03/01 02:50:44;;;;;;;11.52;10.30;;;;;;;;;;4957035;28;20706;-77
2023/03/01 02:53:17;;;;;;;13.75;9.95;;;;;;;;;;4940566;28;20566;-76
2023/03/01 02:55:43;;;;;;;12.73;8.70;;;;;;;;;;4955880;28;20207;-76
2023/03/01 02:58:10;;;;;;;8.70;8.00;;;;;;;;;;4969559;28;20188;-77
2023/03/01 03:00:39;;;;;;;11.95;10.68;;;;;;;;;;4957470;28;21178;-76
2023/03/01 03:03:06;;;;;;;12.80;11.07;;;;;;;;;;4938235;28;20190;-77
2023/03/01 03:05:33;;;;;;;11.77;9.75;;;;;;;;;;4955614;28;20311;-76
2023/03/01 03:08:00;;;;;;;18.25;12.48;;;;;;;;;;4941902;28;20256;-76
2023/03/01 03:10:27;;;;;;;15.68;12.13;;;;;;;;;;4961934;28;20235;-76
2023/03/01 03:12:55;;;;;;;16.27;11.05;;;;;;;;;;4967356;28;20278;-76
2023/03/01 03:15:21;;;;;;;13.85;11.15;;;;;;;;;;4958266;28;20714;-76
2023/03/01 03:17:47;;;;;;;20.23;9.95;;;;;;;;;;4957962;28;20709;-76
2023/03/01 03:20:18;;;;;;;16.20;10.15;;;;;;;;;;4957227;28;20226;-76
2023/03/01 03:22:44;;;;;;;16.00;10.77;;;;;;;;;;4960994;28;20214;-76
2023/03/01 03:25:11;;;;;;;10.50;9.50;;;;;;;;;;4956812;28;20252;-75
2023/03/01 03:27:38;;;;;;;14.20;10.40;;;;;;;;;;4964026;28;20195;-75
2023/03/01 03:30:08;;;;;;;12.02;10.60;;;;;;;;;;4956524;28;20205;-76
2023/03/01 03:32:35;;;;;;;16.95;11.93;;;;;;;;;;4963128;28;20188;-75
2023/03/01 03:35:01;;;;;;;14.70;11.35;;;;;;;;;;4956382;28;20252;-76
2023/03/01 03:40:15;;;;;;;13.60;12.05;;;;;;;;;;4957506;28;20486;-75
2023/03/01 03:42:41;;;;;;;19.70;9.40;;;;;;;;;;4963162;28;20335;-76
2023/03/01 03:45:07;;;;;;;10.15;9.25;;;;;;;;;;4958752;28;20206;-76
2023/03/01 03:47:33;;;;;;;16.83;11.18;;;;;;;;;;4966186;28;20189;-76
2023/03/01 03:49:59;;;;;;;14.90;11.98;;;;;;;;;;4955614;28;20189;-76
2023/03/01 03:52:25;;;;;;;14.90;11.23;;;;;;;;;;4962068;28;20666;-75
2023/03/01 03:54:51;;;;;;;12.30;10.93;;;;;;;;;;4966067;28;20449;-76
2023/03/01 03:57:17;;;;;;;15.77;11.37;;;;;;;;;;4963645;28;20450;-76
2023/03/01 03:59:43;;;;;;;14.93;12.07;;;;;;;;;;4972360;28;20943;-77
2023/03/01 04:02:09;;;;;;;13.63;11.27;;;;;;;;;;4964962;28;20554;-75
2023/03/01 04:04:35;;;;;;;13.37;10.10;;;;;;;;;;4958600;28;20472;-75
2023/03/01 04:07:01;;;;;;;13.93;10.80;;;;;;;;;;4958168;28;20456;-76
2023/03/01 04:09:27;;;;;;;16.40;11.80;;;;;;;;;;4947976;28;20193;-76
2023/03/01 04:11:53;;;;;;;14.13;11.60;;;;;;;;;;4969928;28;21017;-76
2023/03/01 04:14:19;;;;;;;16.53;11.63;;;;;;;;;;4952385;28;20443;-76
2023/03/01 04:16:45;;;;;;;14.88;11.45;;;;;;;;;;4929421;28;20475;-76
2023/03/01 04:19:11;;;;;;;15.25;10.45;;;;;;;;;;4947288;28;20186;-75
2023/03/01 04:21:37;;;;;;;12.90;11.52;;;;;;;;;;4956813;28;20213;-75
2023/03/01 04:24:03;;;;;;;16.60;12.70;;;;;;;;;;4962534;28;20201;-76
2023/03/01 04:26:29;;;;;;;11.45;10.32;;;;;;;;;;4939687;28;20456;-77
2023/03/01 04:28:55;;;;;;;14.30;12.05;;;;;;;;;;4954865;28;20191;-75
2023/03/01 04:31:21;;;;;;;14.57;12.63;;;;;;;;;;4934418;28;20238;-76
2023/03/01 04:33:51;;;;;;;11.50;9.80;;;;;;;;;;4956224;28;20179;-75
2023/03/01 04:36:17;;;;;;;15.27;11.77;;;;;;;;;;4945313;28;20208;-77
2023/03/01 04:38:47;;;;;;;14.75;11.00;;;;;;;;;;4962263;28;20691;-76
2023/03/01 04:41:13;;;;;;;13.95;11.80;;;;;;;;;;4957686;28;20672;-75
2023/03/01 04:43:39;;;;;;;14.73;10.97;;;;;;;;;;4942058;28;20179;-77
2023/03/01 04:46:07;;;;;;;15.73;10.60;;;;;;;;;;4955890;28;20909;-77
2023/03/01 04:48:34;;;;;;;15.38;11.68;;;;;;;;;;4964161;28;20480;-81
2023/03/01 04:51:00;;;;;;;12.75;10.02;;;;;;;;;;4964889;28;20227;-82
2023/03/01 04:53:27;;;;;;;21.40;12.63;;;;;;;;;;4962557;28;20270;-75
2023/03/01 04:55:54;;;;;;;10.13;8.52;;;;;;;;;;4944395;28;20253;-75
2023/03/01 04:58:20;;;;;;;9.20;8.25;;;;;;;;;;4959332;28;20648;-73
2023/03/01 05:00:46;;;;;;;14.17;12.20;;;;;;;;;;4946021;28;20201;-75
2023/03/01 05:03:12;;;;;;;15.38;11.88;;;;;;;;;;4957036;28;20471;-76
2023/03/01 05:05:39;;;;;;;16.90;11.75;;;;;;;;;;4955722;28;22144;-74
2023/03/01 05:08:06;;;;;;;15.77;11.30;;;;;;;;;;4939440;28;20207;-75
2023/03/01 05:10:35;;;;;;;15.75;11.68;;;;;;;;;;4948635;28;20824;-76
2023/03/01 05:13:01;;;;;;;11.57;10.20;;;;;;;;;;4956718;28;20579;-75
2023/03/01 05:15:28;;;;;;;28.33;18.97;;;;;;;;;;4958499;28;20209;-76
2023/03/01 05:17:55;;;;;;;15.15;12.05;;;;;;;;;;4938268;28;20482;-76
2023/03/01 05:20:24;;;;;;;10.85;9.73;;;;;;;;;;4958902;28;20200;-75
2023/03/01 05:22:50;;;;;;;13.40;10.35;;;;;;;;;;4962818;28;20904;-85
2023/03/01 05:25:16;;;;;;;13.45;11.32;;;;;;;;;;4961666;28;20249;-82
2023/03/01 05:27:43;;;;;;;13.07;11.77;;;;;;;;;;4944791;28;20180;-75
2023/03/01 05:30:15;;;;;;;18.92;13.10;;;;;;;;;;4942549;28;20179;-76
2023/03/01 05:32:43;;;;;;;15.10;10.30;;;;;;;;;;4943774;28;20251;-76
2023/03/01 05:35:12;;;;;;;14.38;10.40;;;;;;;;;;4958502;28;20229;-77
2023/03/01 05:37:40;;;;;;;12.73;9.23;;;;;;;;;;4939956;28;20192;-77
2023/03/01 05:40:07;;;;;;;7.80;7.13;;;;;;;;;;4938435;28;20194;-77
2023/03/01 05:42:33;;;;;;;11.40;8.52;;;;;;;;;;4935848;28;20286;-77
2023/03/01 05:45:00;;;;;;;14.52;11.00;;;;;;;;;;4942850;28;20255;-77
2023/03/01 05:47:26;;;;;;;12.43;10.77;;;;;;;;;;4918546;28;20207;-78
2023/03/01 05:49:52;;;;;;;16.30;9.38;;;;;;;;;;4937041;28;20653;-78
2023/03/01 05:52:18;;;;;;;16.08;10.75;;;;;;;;;;4940242;28;20197;-76
2023/03/01 05:54:44;;;;;;;16.58;11.52;;;;;;;;;;4939222;28;20194;-78
2023/03/01 05:57:10;;;;;;;15.02;11.32;;;;;;;;;;4936244;28;20228;-79
2023/03/01 05:59:36;;;;;;;17.47;10.73;;;;;;;;;;4953751;28;20789;-78
2023/03/01 06:02:02;;;;;;;21.07;11.47;;;;;;;;;;4936914;28;22471;-77
2023/03/01 06:04:28;;;;;;;10.27;8.32;;;;;;;;;;4956984;28;20516;-78
2023/03/01 06:06:54;;;;;;;11.88;10.30;;;;;;;;;;4934798;28;20211;-78
2023/03/01 06:09:21;;;;;;;14.90;11.83;;;;;;;;;;4955832;28;20186;-78
2023/03/01 06:11:47;;;;;;;14.70;10.82;;;;;;;;;;4928784;28;20835;-77
2023/03/01 06:14:14;;;;;;;24.55;12.63;;;;;;;;;;4923746;28;20197;-77
2023/03/01 06:16:40;;;;;;;15.85;11.45;;;;;;;;;;4939610;28;20222;-78
2023/03/01 06:19:06;;;;;;;11.27;10.20;;;;;;;;;;4955905;28;20204;-77
2023/03/01 06:21:32;;;;;;;16.27;10.00;;;;;;;;;;4955363;28;20465;-77
2023/03/01 06:23:58;;;;;;;10.30;9.20;;;;;;;;;;4953544;28;20438;-78
2023/03/01 06:26:24;;;;;;;13.97;12.47;;;;;;;;;;4936798;28;20467;-78
2023/03/01 06:28:50;;;;;;;16.23;11.52;;;;;;;;;;4955489;28;20488;-78
2023/03/01 06:31:16;;;;;;;12.07;10.95;;;;;;;;;;4952106;28;20265;-77
2023/03/01 06:33:44;;;;;;;12.00;10.73;;;;;;;;;;4957280;28;20699;-78
2023/03/01 06:36:10;;;;;;;22.00;12.70;;;;;;;;;;4955219;28;20463;-77
2023/03/01 06:38:36;;;;;;;16.15;12.35;;;;;;;;;;4937098;28;20174;-79
2023/03/01 06:41:02;;;;;;;18.30;12.00;;;;;;;;;;4956762;28;20873;-78
2023/03/01 06:43:28;;;;;;;10.63;9.47;;;;;;;;;;4954781;28;20223;-77
2023/03/01 06:45:54;;;;;;;11.80;10.60;;;;;;;;;;4955308;28;20926;-78
2023/03/01 06:48:20;;;;;;;12.17;10.50;;;;;;;;;;4955389;28;21021;-77
2023/03/01 06:50:46;;;;;;;13.03;11.37;;;;;;;;;;4956331;28;20438;-80
2023/03/01 06:53:12;;;;;;;16.23;11.77;;;;;;;;;;4936252;28;20462;-78
2023/03/01 06:55:38;;;;;;;18.43;9.93;;;;;;;;;;4958041;28;20471;-76
2023/03/01 06:58:04;;;;;;;21.43;12.50;;;;;;;;;;4936815;28;21047;-79
2023/03/01 07:00:31;;;;;;;14.75;12.23;;;;;;;;;;4939112;28;20962;-77
2023/03/01 07:03:01;;;;;;;13.25;11.88;;;;;;;;;;4955122;28;20201;-77
2023/03/01 07:05:27;;;;;;;18.63;14.23;;;;;;;;;;4955012;28;20211;-77
2023/03/01 07:07:54;;;;;;;10.35;7.40;;;;;;;;;;4952867;28;20653;-77
2023/03/01 07:10:21;;;;;;;14.80;11.20;;;;;;;;;;4952139;28;20221;-75
2023/03/01 07:12:47;;;;;;;15.48;13.88;;;;;;;;;;4951530;28;20238;-78
2023/03/01 07:15:14;;;;;;;14.93;13.20;;;;;;;;;;4937745;28;20730;-78
2023/03/01 07:17:40;;;;;;;12.80;10.77;;;;;;;;;;4950464;28;20303;-78
2023/03/01 07:20:06;;;;;;;13.05;10.85;;;;;;;;;;4951650;28;20203;-78
2023/03/01 07:22:33;;;;;;;14.57;11.40;;;;;;;;;;4952553;28;20191;-78
2023/03/01 07:24:59;;;;;;;18.30;11.30;;;;;;;;;;4950651;28;20496;-78
2023/03/01 07:27:25;;;;;;;11.40;9.77;;;;;;;;;;4949239;28;20453;-79
2023/03/01 07:29:51;;;;;;;12.90;10.70;;;;;;;;;;4940377;28;20852;-76
2023/03/01 07:32:17;;;;;;;11.73;10.57;;;;;;;;;;4953504;28;20904;-77
2023/03/01 07:34:43;;;;;;;12.70;10.33;;;;;;;;;;4946531;28;20527;-78
2023/03/01 07:37:09;;;;;;;11.77;10.40;;;;;;;;;;4933250;28;20534;-78
2023/03/01 07:39:35;;;;;;;11.77;10.67;;;;;;;;;;4929576;28;20994;-77
2023/03/01 07:42:01;;;;;;;11.87;10.77;;;;;;;;;;4952329;28;20444;-79
2023/03/01 07:44:30;;;;;;;18.47;11.10;;;;;;;;;;4937780;28;20485;-78
2023/03/01 07:46:57;;;;;;;14.77;12.93;;;;;;;;;;4951131;28;20522;-78
2023/03/01 07:49:26;;;;;;;13.83;11.00;;;;;;;;;;4953533;28;20492;-79
2023/03/01 07:51:52;;;;;;;14.77;11.97;;;;;;;;;;4941709;28;20435;-78
2023/03/01 07:54:18;;;;;;;14.33;11.87;;;;;;;;;;4935765;28;20503;-79
2023/03/01 07:56:45;;;;;;;12.37;11.03;;;;;;;;;;4933996;28;20468;-79
2023/03/01 07:59:11;;;;;;;12.80;11.53;;;;;;;;;;4933239;28;20429;-79
2023/03/01 08:01:41;;;;;;;15.60;12.13;;;;;;;;;;4952717;28;20418;-79
2023/03/01 08:04:08;;;;;;;13.73;10.80;;;;;;;;;;4917350;28;20444;-76
2023/03/01 08:06:35;;;;;;;11.30;10.30;;;;;;;;;;4943798;28;21310;-78
2023/03/01 08:09:01;;;;;;;16.03;10.73;;;;;;;;;;4964242;28;20405;-78
2023/03/01 08:11:30;;;;;;;12.30;11.10;;;;;;;;;;4966503;28;20409;-78
2023/03/01 08:13:57;;;;;;;29.33;11.80;;;;;;;;;;4965099;28;20408;-79
2023/03/01 08:16:23;;;;;;;11.90;10.73;;;;;;;;;;4968737;28;20496;-79
2023/03/01 08:18:49;;;;;;;16.30;11.80;;;;;;;;;;4968312;28;20432;-79
2023/03/01 08:21:17;;;;;;;19.57;11.50;;;;;;;;;;4966280;28;20510;-80
2023/03/01 08:23:43;;;;;;;10.67;9.57;;;;;;;;;;4944772;28;20434;-80
2023/03/01 08:26:18;;;;;;;11.60;10.47;;;;;;;;;;4982184;28;20591;-78
2023/03/01 08:28:47;;;;;;;14.40;10.90;;;;;;;;;;4968029;28;20495;-80
2023/03/01 08:31:17;;;;;;;13.67;9.77;;;;;;;;;;4967640;28;20544;-78
2023/03/01 08:33:44;;;;;;;13.90;9.83;;;;;;;;;;4959195;28;20916;-79
2023/03/01 08:36:10;;;;;;;12.57;11.40;;;;;;;;;;4955273;28;20473;-79
2023/03/01 08:38:36;;;;;;;11.73;10.30;;;;;;;;;;4940324;28;20978;-80
2023/03/01 08:41:05;;;;;;;11.40;10.50;;;;;;;;;;4938574;28;20457;-79
2023/03/01 08:43:31;;;;;;;11.20;10.20;;;;;;;;;;4956972;28;20469;-80
2023/03/01 08:45:57;;;;;;;12.17;11.10;;;;;;;;;;4955376;28;20548;-80
2023/03/01 08:48:23;;;;;;;11.67;10.57;;;;;;;;;;4937605;28;20458;-79
2023/03/01 08:50:49;;;;;;;11.87;10.73;;;;;;;;;;4945348;28;20484;-78
2023/03/01 08:53:15;;;;;;;11.60;10.40;;;;;;;;;;4954626;28;20461;-81
2023/03/01 08:55:41;;;;;;;11.57;10.47;;;;;;;;;;4954664;28;21019;-79
2023/03/01 08:58:07;;;;;;;11.33;10.30;;;;;;;;;;4953406;28;20457;-79
2023/03/01 09:00:34;;;;;;;10.93;9.83;;;;;;;;;;4964054;28;20486;-79
2023/03/01 09:03:00;;;;;;;10.53;9.57;;;;;;;;;;4951179;28;20970;-81
2023/03/01 09:05:26;;;;;;;13.80;9.97;;;;;;;;;;4973106;28;20463;-81
2023/03/01 09:07:52;;;;;;;12.10;9.17;;;;;;;;;;4955627;28;20448;-79
2023/03/01 09:10:18;;;;;;;9.97;8.93;;;;;;;;;;4963448;28;20548;-78
2023/03/01 09:12:44;;;;;;;16.37;9.23;;;;;;;;;;4983650;28;20507;-79
2023/03/01 09:15:10;;;;;;;9.70;8.90;;;;;;;;;;4968856;28;20448;-79
2023/03/01 09:17:36;;;;;;;10.50;9.30;;;;;;;;;;4963055;28;21008;-81
2023/03/01 09:20:05;;;;;;;10.67;9.80;;;;;;;;;;4945583;28;21016;-79
2023/03/01 09:22:31;;;;;;;10.77;9.77;;;;;;;;;;4966072;28;20544;-81
2023/03/01 09:24:58;;;;;;;10.43;9.60;;;;;;;;;;4956438;28;20531;-79
2023/03/01 09:27:25;;;;;;;9.50;8.60;;;;;;;;;;4967700;28;20866;-80
2023/03/01 09:29:51;;;;;;;8.77;8.17;;;;;;;;;;4978636;28;20451;-81
2023/03/01 09:32:16;;;;;;;8.40;7.87;;;;;;;;;;4968387;28;20428;-81
2023/03/01 09:35:04;;;;;;;9.37;8.70;;;;;;;;;;4969234;28;20440;-82
2023/03/01 09:37:31;;;;;;;9.90;9.10;;;;;;;;;;4949976;28;20854;-79
2023/03/01 09:39:57;;;;;;;9.00;8.20;;;;;;;;;;4958886;28;20964;-80
2023/03/01 09:42:23;;;;;;;12.30;8.03;;;;;;;;;;4944748;28;20501;-82
2023/03/01 09:44:53;;;;;;;8.20;7.60;;;;;;;;;;4964937;28;20466;-82
2023/03/01 09:47:22;;;;;;;9.20;8.30;;;;;;;;;;4972321;28;20849;-82
2023/03/01 09:50:16;;;;;;;8.57;7.87;;;;;;;;;;4960802;28;20524;-80
2023/03/01 09:52:42;;;;;;;7.67;7.07;;;;;;;;;;4970346;28;20667;-79
2023/03/01 09:55:13;;;;;;;10.00;9.00;;;;;;;;;;4966166;28;20421;-78
2023/03/01 09:57:42;;;;;;;8.93;8.33;;;;;;;;;;4955292;28;20471;-83
2023/03/01 10:00:27;;;;;;;8.70;8.10;;;;;;;;;;4976786;28;20421;-84
2023/03/01 10:03:13;;;;;;;9.40;8.50;;;;;;;;;;4967363;28;20526;-83
2023/03/01 10:05:47;;;;;;;9.67;9.00;;;;;;;;;;4944799;28;20488;-79
2023/03/01 10:08:27;;;;;;;9.10;8.50;;;;;;;;;;4955646;28;20497;-82
2023/03/01 10:13:53;;;;;;;9.07;8.37;;;;;;;;;;5165186;23;20506;-94
2023/03/01 10:16:38;;;;;;;8.77;8.07;;;;;;;;;;4918444;29;20495;-89
2023/03/01 10:19:06;;;;;;;8.53;7.93;;;;;;;;;;4926557;29;20523;-93
2023/03/01 10:21:42;;;;;;;9.43;8.67;;;;;;;;;;4926588;29;20451;-94
2023/03/01 10:24:15;;;;;;;9.43;8.77;;;;;;;;;;4935457;29;20467;-93
2023/03/01 10:27:02;;;;;;;9.17;8.47;;;;;;;;;;4938306;28;20475;-92
2023/03/01 10:29:38;;;;;;;9.50;8.60;;;;;;;;;;4935483;29;20444;-96
2023/03/01 10:32:11;;;;;;;9.83;9.03;;;;;;;;;;4930737;29;20462;-93
2023/03/01 10:34:44;;;;;;;9.47;8.80;;;;;;;;;;4931026;29;20478;-93
2023/03/01 10:37:24;;;;;;;8.70;8.00;;;;;;;;;;4951789;28;20444;-91
2023/03/01 10:39:58;;;;;;;9.07;8.37;;;;;;;;;;4946132;23;20576;-83
2023/03/01 10:42:29;;;;;;;8.30;7.80;;;;;;;;;;4929906;28;21008;-80
2023/03/01 10:44:56;;;;;;;9.63;8.87;;;;;;;;;;4933019;28;20760;-80
2023/03/01 10:47:26;;;;;;;9.67;8.90;;;;;;;;;;4932318;29;22784;-81
2023/03/01 10:49:54;;;;;;;10.07;9.27;;;;;;;;;;4932425;28;20747;-80
2023/03/01 10:52:22;;;;;;;9.00;8.20;;;;;;;;;;4947886;28;20458;-77
2023/03/01 10:54:56;;;;;;;9.83;8.60;;;;;;;;;;4943314;28;20871;-78
2023/03/01 10:57:29;;;;;;;9.77;8.77;;;;;;;;;;4934839;28;20692;-79
2023/03/01 11:00:02;;;;;;;10.33;9.40;;;;;;;;;;4951869;28;20836;-79
2023/03/01 11:02:29;;;;;;;7.87;7.17;;;;;;;;;;4945164;28;20433;-79
2023/03/01 11:05:03;;;;;;;7.90;7.40;;;;;;;;;;4956202;28;20417;-80
2023/03/01 11:07:29;;;;;;;8.03;7.43;;;;;;;;;;4941741;28;20868;-80
2023/03/01 11:09:55;;;;;;;8.93;8.20;;;;;;;;;;4944268;29;20446;-81
2023/03/01 11:14:57;;;;;;;8.57;7.88;;;;;;;;;;4449798;23;1302591;-81
2023/03/01 11:17:27;;;;;;;13.60;8.70;;;;;;;;;;4964355;28;20210;-76
2023/03/01 11:20:15;;;;;;;9.50;8.60;;;;;;;;;;4964867;28;20436;-80
2023/03/01 11:22:54;;;;;;;8.30;7.80;;;;;;;;;;4964393;28;20429;-82
2023/03/01 11:25:24;;;;;;;10.77;8.20;;;;;;;;;;4973090;28;20449;-79
2023/03/01 11:27:50;;;;;;;9.00;8.23;;;;;;;;;;4950545;28;20492;-78
2023/03/01 11:30:19;;;;;;;9.03;7.70;;;;;;;;;;4947665;28;20454;-78
2023/03/01 11:33:08;;;;;;;9.00;8.17;;;;;;;;;;4972695;28;21571;-77
2023/03/01 11:35:37;;;;;;;9.80;8.20;;;;;;;;;;4967208;28;20444;-76
2023/03/01 11:38:10;;;;;;;8.43;7.83;;;;;;;;;;4973872;28;20515;-76
2023/03/01 11:40:59;;;;;;;8.93;8.10;;;;;;;;;;4971621;28;20437;-77
2023/03/01 11:43:44;;;;;;;9.07;8.10;;;;;;;;;;4954754;28;20937;-75
2023/03/01 11:46:25;;;;;;;8.97;8.20;;;;;;;;;;4973327;28;20461;-75
2023/03/01 11:49:00;;;;;;;8.83;8.03;;;;;;;;;;4969168;28;20562;-75
2023/03/01 11:51:44;;;;;;;8.20;7.50;;;;;;;;;;4973084;28;20420;-76
2023/03/01 11:54:15;;;;;;;8.93;8.20;;;;;;;;;;4968655;28;21069;-76
2023/03/01 11:57:07;;;;;;;9.80;8.80;;;;;;;;;;4972761;28;20899;-76
2023/03/01 11:59:33;;;;;;;10.50;8.43;;;;;;;;;;4925420;28;20520;-76
2023/03/01 12:02:01;;;;;;;11.37;9.53;;;;;;;;;;4969626;28;20500;-78
2023/03/01 12:04:30;;;;;;;9.40;8.60;;;;;;;;;;4965312;28;20714;-74
2023/03/01 12:06:58;;;;;;;8.43;7.73;;;;;;;;;;4974494;28;20762;-76
2023/03/01 12:09:42;;;;;;;8.70;7.83;;;;;;;;;;4972265;28;20774;-75
2023/03/01 12:12:26;;;;;;;8.67;8.00;;;;;;;;;;4974254;28;20440;-77
2023/03/01 12:15:04;;;;;;;8.73;8.00;;;;;;;;;;4941624;28;20531;-78
2023/03/01 12:17:49;;;;;;;9.20;8.43;;;;;;;;;;4946787;29;20875;-77
2023/03/01 12:20:15;;;;;;;8.67;8.10;;;;;;;;;;4931189;28;20857;-76
2023/03/01 12:23:00;;;;;;;8.10;7.60;;;;;;;;;;4953842;28;20796;-78
2023/03/01 12:25:29;;;;;;;8.90;8.20;;;;;;;;;;4954071;28;20440;-76
2023/03/01 12:27:58;;;;;;;12.53;8.50;;;;;;;;;;4955298;28;20472;-77
2023/03/01 12:30:35;;;;;;;9.77;8.87;;;;;;;;;;4954701;28;20808;-76
2023/03/01 12:33:07;;;;;;;8.93;8.30;;;;;;;;;;4955444;28;20995;-76
2023/03/01 12:35:51;;;;;;;7.97;7.47;;;;;;;;;;4959192;28;20438;-78
2023/03/01 12:38:37;;;;;;;14.20;8.33;;;;;;;;;;4951422;28;20430;-77
2023/03/01 12:41:15;;;;;;;10.40;9.50;;;;;;;;;;4948893;28;20417;-78
2023/03/01 12:43:59;;;;;;;11.30;10.37;;;;;;;;;;4954023;28;20414;-76
2023/03/01 12:46:31;;;;;;;8.37;7.73;;;;;;;;;;4955882;28;20613;-77
2023/03/01 12:49:18;;;;;;;8.10;7.50;;;;;;;;;;4954545;28;20837;-76
2023/03/01 12:51:52;;;;;;;7.77;7.27;;;;;;;;;;4957599;28;20405;-79
2023/03/01 12:54:26;;;;;;;9.00;8.30;;;;;;;;;;4934773;28;20451;-77
2023/03/01 12:56:53;;;;;;;8.53;7.83;;;;;;;;;;4954052;28;20439;-77
2023/03/01 12:59:25;;;;;;;8.77;8.20;;;;;;;;;;4953220;28;20441;-84
2023/03/01 13:01:57;;;;;;;9.20;7.77;;;;;;;;;;4947680;28;20433;-77
2023/03/01 13:04:37;;;;;;;8.73;7.93;;;;;;;;;;4950071;28;20511;-77
2023/03/01 13:07:03;;;;;;;8.03;7.30;;;;;;;;;;4938482;28;20695;-76
2023/03/01 13:09:32;;;;;;;118.83;87.07;;;;;;;;;;4952482;28;20431;-77
2023/03/01 13:11:58;;;;;;;9.43;8.73;;;;;;;;;;4958004;28;20433;-77
2023/03/01 13:14:24;;;;;;;9.67;8.90;;;;;;;;;;4954242;28;20470;-77
2023/03/01 13:16:51;;;;;;;9.47;8.67;;;;;;;;;;4958874;28;20441;-77
2023/03/01 13:19:18;;;;;;;8.60;7.90;;;;;;;;;;4954179;28;20945;-76
2023/03/01 13:21:45;;;;;;;8.40;7.80;;;;;;;;;;4958328;28;20468;-78
2023/03/01 13:24:23;;;;;;;9.03;8.33;;;;;;;;;;4957531;28;20664;-77
2023/03/01 13:27:08;;;;;;;8.40;7.90;;;;;;;;;;4955794;28;20784;-77
2023/03/01 13:29:52;;;;;;;9.47;8.73;;;;;;;;;;4953283;28;20723;-80
2023/03/01 13:32:24;;;;;;;9.47;8.80;;;;;;;;;;4954957;28;20434;-80
2023/03/01 13:34:52;;;;;;;11.00;8.73;;;;;;;;;;4956534;28;20528;-79
2023/03/01 13:37:29;;;;;;;9.30;8.27;;;;;;;;;;4959791;28;20434;-78
2023/03/01 13:39:57;;;;;;;12.77;11.47;;;;;;;;;;4951780;28;20414;-79
2023/03/01 13:42:32;;;;;;;8.90;8.20;;;;;;;;;;4957836;28;20768;-78
2023/03/01 13:45:03;;;;;;;7.97;7.27;;;;;;;;;;4960149;28;20532;-76
2023/03/01 13:47:29;;;;;;;9.63;8.83;;;;;;;;;;4930445;29;20481;-76
2023/03/01 13:50:00;;;;;;;9.03;8.23;;;;;;;;;;4945198;28;20840;-76
2023/03/01 13:52:39;;;;;;;8.03;7.53;;;;;;;;;;4951277;28;20438;-75
2023/03/01 13:55:25;;;;;;;8.33;7.30;;;;;;;;;;4954473;28;20425;-76
2023/03/01 13:57:54;;;;;;;9.67;8.73;;;;;;;;;;4945859;28;20433;-79
2023/03/01 14:00:30;;;;;;;7.70;7.13;;;;;;;;;;4955001;28;20458;-80
2023/03/01 14:03:05;;;;;;;8.27;7.57;;;;;;;;;;4947968;28;20481;-77
2023/03/01 14:05:32;;;;;;;8.60;7.90;;;;;;;;;;4951036;28;20476;-76
2023/03/01 14:07:58;;;;;;;8.90;8.20;;;;;;;;;;4949765;28;20909;-76
2023/03/01 14:10:28;;;;;;;8.97;7.97;;;;;;;;;;4934191;28;20472;-77
2023/03/01 14:13:08;;;;;;;8.90;7.70;;;;;;;;;;4953218;28;20715;-77
2023/03/01 14:15:37;;;;;;;8.23;7.43;;;;;;;;;;4955015;28;20465;-77
2023/03/01 14:18:07;;;;;;;9.20;7.23;;;;;;;;;;4952640;28;20956;-76
2023/03/01 14:20:39;;;;;;;7.63;7.13;;;;;;;;;;4958579;28;20897;-77
2023/03/01 14:23:10;;;;;;;8.57;6.93;;;;;;;;;;4934648;28;20861;-78
2023/03/01 14:25:38;;;;;;;24.40;8.40;;;;;;;;;;4951914;28;20590;-79
2023/03/01 14:28:04;;;;;;;8.40;7.60;;;;;;;;;;4952986;28;20469;-76
2023/03/01 14:30:36;;;;;;;8.90;8.20;;;;;;;;;;4950541;28;20518;-78
2023/03/01 14:33:05;;;;;;;10.63;7.53;;;;;;;;;;4948224;28;20442;-77
2023/03/01 14:35:33;;;;;;;6.87;6.47;;;;;;;;;;4954015;28;20524;-76
2023/03/01 14:37:59;;;;;;;8.90;8.10;;;;;;;;;;4953861;28;20442;-79
2023/03/01 14:40:25;;;;;;;8.00;6.93;;;;;;;;;;4953705;28;20566;-77
2023/03/01 14:42:52;;;;;;;9.40;8.57;;;;;;;;;;4949788;28;20485;-78
2023/03/01 14:45:18;;;;;;;8.73;8.03;;;;;;;;;;4950876;28;20426;-76
2023/03/01 14:47:44;;;;;;;10.10;9.10;;;;;;;;;;4926962;28;20430;-77
2023/03/01 14:50:19;;;;;;;8.43;7.83;;;;;;;;;;4947932;28;20660;-77